Time;durP1;ratioP1;P1;durP2;ratioP2;P2;SDS_P1;SDS_P2;PMS_P1;PMS_P2;Temp;Humidity;BMP_temperature;BMP_pressure;BME280_temperature;BME280_humidity;BME280_pressure;Samples;Min_cycle;Max_cycle;Signal;HPM_P1;HPM_P2
2021/11/19 00:00:53;;;;;;;6.07;4.32;;;9.50;99.90;;;;;;6153242;23;19998;-75
2021/11/19 00:03:20;;;;;;;6.95;4.55;;;9.40;99.90;;;;;;6153306;23;20002;-75
2021/11/19 00:05:47;;;;;;;7.10;4.40;;;9.40;99.90;;;;;;6153473;23;20002;-75
2021/11/19 00:08:15;;;;;;;7.60;4.07;;;9.40;99.90;;;;;;6152734;23;20005;-75
2021/11/19 00:10:41;;;;;;;10.18;4.82;;;9.40;99.90;;;;;;6153227;23;20077;-75
2021/11/19 00:13:08;;;;;;;4.97;4.18;;;9.30;99.90;;;;;;6152954;23;19997;-74
2021/11/19 00:15:34;;;;;;;8.55;4.03;;;9.30;99.90;;;;;;6127195;23;20005;-75
2021/11/19 00:18:00;;;;;;;5.47;4.38;;;9.40;99.90;;;;;;6152888;23;20457;-75
2021/11/19 00:20:28;;;;;;;6.43;4.55;;;9.40;99.90;;;;;;6153548;23;20056;-74
2021/11/19 00:23:05;;;;;;;6.93;4.07;;;9.40;99.90;;;;;;6153350;23;20006;-74
2021/11/19 00:25:33;;;;;;;6.70;4.30;;;9.40;99.90;;;;;;6153242;23;20074;-74
2021/11/19 00:27:58;;;;;;;5.20;4.10;;;9.40;99.90;;;;;;6153087;23;20056;-74
2021/11/19 00:30:27;;;;;;;6.53;4.47;;;9.40;99.90;;;;;;6153276;23;20012;-75
2021/11/19 00:32:52;;;;;;;5.53;4.15;;;9.30;99.90;;;;;;6153176;23;20436;-74
2021/11/19 00:35:18;;;;;;;5.88;4.53;;;9.30;99.90;;;;;;6153208;23;20008;-74
2021/11/19 00:37:48;;;;;;;5.82;4.38;;;9.30;99.90;;;;;;6152723;23;20073;-74
2021/11/19 00:40:19;;;;;;;7.30;4.82;;;9.30;99.90;;;;;;6151418;23;20075;-75
2021/11/19 00:42:44;;;;;;;8.63;5.07;;;9.30;99.90;;;;;;6152366;23;20011;-74
2021/11/19 00:45:10;;;;;;;4.97;4.05;;;9.30;99.90;;;;;;6126961;23;20006;-74
2021/11/19 00:47:36;;;;;;;5.70;4.35;;;9.30;99.90;;;;;;6152854;23;19998;-74
2021/11/19 00:50:11;;;;;;;6.57;4.72;;;9.30;99.90;;;;;;6153376;23;20607;-74
2021/11/19 00:52:37;;;;;;;7.80;4.60;;;9.30;99.90;;;;;;6153128;23;20009;-74
2021/11/19 00:55:04;;;;;;;7.18;4.70;;;9.30;99.90;;;;;;6153258;23;20005;-74
2021/11/19 00:57:30;;;;;;;5.38;4.10;;;9.30;99.90;;;;;;6152652;23;20088;-74
2021/11/19 00:59:56;;;;;;;9.43;4.53;;;9.30;99.90;;;;;;6153034;23;20088;-74
2021/11/19 01:02:24;;;;;;;10.23;4.53;;;9.30;99.90;;;;;;6152231;23;20012;-75
2021/11/19 01:04:50;;;;;;;5.35;4.15;;;9.30;99.90;;;;;;6150786;23;20003;-74
2021/11/19 01:07:20;;;;;;;6.45;4.32;;;9.30;99.90;;;;;;6151416;23;20092;-74
2021/11/19 01:09:50;;;;;;;5.68;3.92;;;9.30;99.90;;;;;;6151617;23;20017;-74
2021/11/19 01:12:19;;;;;;;8.10;4.70;;;9.30;99.90;;;;;;6153103;23;19997;-74
2021/11/19 01:15:14;;;;;;;6.18;4.47;;;9.40;99.90;;;;;;6154526;23;20010;-72
2021/11/19 01:18:05;;;;;;;6.13;4.35;;;9.40;99.90;;;;;;6152184;23;20061;-72
2021/11/19 01:20:39;;;;;;;7.78;5.05;;;9.40;99.90;;;;;;6154871;23;20005;-72
2021/11/19 01:23:10;;;;;;;7.95;4.88;;;9.40;99.90;;;;;;6154537;23;20005;-74
2021/11/19 01:25:39;;;;;;;6.05;4.05;;;9.30;99.90;;;;;;6155234;23;20021;-74
2021/11/19 01:28:06;;;;;;;6.63;4.43;;;9.30;99.90;;;;;;6154504;23;20083;-74
2021/11/19 01:30:43;;;;;;;8.50;4.72;;;9.30;99.90;;;;;;6154992;23;20008;-74
2021/11/19 01:33:10;;;;;;;10.00;4.53;;;9.30;99.90;;;;;;6128312;23;20103;-74
2021/11/19 01:35:36;;;;;;;6.82;4.82;;;9.30;99.90;;;;;;6154859;23;19997;-74
2021/11/19 01:38:03;;;;;;;6.93;4.68;;;9.40;99.90;;;;;;6154402;23;20020;-74
2021/11/19 01:40:32;;;;;;;7.38;4.63;;;9.30;99.90;;;;;;6128854;23;20009;-75
2021/11/19 01:43:06;;;;;;;6.63;4.90;;;9.30;99.90;;;;;;6152915;23;20013;-74
2021/11/19 01:45:45;;;;;;;5.55;4.32;;;9.30;99.90;;;;;;6154520;23;19994;-74
2021/11/19 01:48:14;;;;;;;5.78;4.30;;;9.30;99.90;;;;;;6128234;23;20385;-74
2021/11/19 01:50:49;;;;;;;5.05;4.18;;;9.20;99.90;;;;;;6153256;23;20002;-74
2021/11/19 01:53:18;;;;;;;8.18;4.47;;;9.20;99.90;;;;;;6154603;23;20004;-74
2021/11/19 01:56:05;;;;;;;7.68;5.10;;;9.20;99.90;;;;;;6154978;23;20573;-74
2021/11/19 01:58:38;;;;;;;5.57;4.47;;;9.10;99.90;;;;;;6154119;23;20009;-74
2021/11/19 02:01:08;;;;;;;6.65;4.40;;;9.10;99.90;;;;;;6154327;23;20021;-74
2021/11/19 02:03:37;;;;;;;8.63;4.30;;;9.10;99.90;;;;;;6154627;23;20080;-74
2021/11/19 02:06:05;;;;;;;6.55;4.28;;;9.10;99.90;;;;;;6154335;23;20001;-74
2021/11/19 02:08:36;;;;;;;10.25;4.50;;;9.10;99.90;;;;;;6154276;23;19998;-74
2021/11/19 02:11:17;;;;;;;6.07;4.43;;;9.10;99.90;;;;;;6153984;23;20009;-74
2021/11/19 02:13:49;;;;;;;7.63;4.72;;;9.20;99.90;;;;;;6154023;23;20005;-72
2021/11/19 02:16:22;;;;;;;5.07;4.07;;;9.20;99.90;;;;;;6154259;23;20009;-72
2021/11/19 02:18:55;;;;;;;5.43;4.10;;;9.20;99.90;;;;;;6154406;23;20106;-72
2021/11/19 02:21:39;;;;;;;10.07;4.43;;;9.30;99.90;;;;;;6154177;23;20373;-72
2021/11/19 02:24:09;;;;;;;9.02;5.32;;;9.20;99.90;;;;;;6128260;23;20010;-74
2021/11/19 02:26:41;;;;;;;7.18;4.93;;;9.30;99.90;;;;;;6153484;23;20005;-74
2021/11/19 02:29:07;;;;;;;;;;;9.20;99.90;;;;;;6154393;23;20092;-74
2021/11/19 02:31:45;;;;;;;5.15;4.20;;;9.20;99.90;;;;;;6128027;23;20312;-74
2021/11/19 02:34:11;;;;;;;6.18;4.93;;;9.20;99.90;;;;;;6154369;23;19997;-74
2021/11/19 02:36:39;;;;;;;10.93;5.13;;;9.20;99.90;;;;;;6153879;23;20013;-74
2021/11/19 02:39:18;;;;;;;8.88;5.00;;;9.20;99.90;;;;;;6154086;23;20029;-74
2021/11/19 02:41:49;;;;;;;6.15;4.53;;;9.20;99.90;;;;;;6127338;23;20013;-74
2021/11/19 02:44:20;;;;;;;7.32;5.32;;;9.20;99.90;;;;;;6154058;23;20020;-74
2021/11/19 02:46:49;;;;;;;7.85;5.05;;;9.20;99.90;;;;;;6153576;23;20005;-74
2021/11/19 02:49:15;;;;;;;6.68;4.80;;;9.20;99.90;;;;;;6154261;23;20001;-74
2021/11/19 02:51:41;;;;;;;6.60;4.72;;;9.20;99.90;;;;;;6153437;23;20014;-74
2021/11/19 02:54:11;;;;;;;7.13;4.60;;;9.20;99.90;;;;;;6127484;23;20421;-74
2021/11/19 02:56:38;;;;;;;9.75;4.88;;;9.20;99.90;;;;;;6153059;23;20006;-74
2021/11/19 02:59:06;;;;;;;6.22;4.63;;;9.20;99.90;;;;;;6154170;23;20015;-74
2021/11/19 03:01:45;;;;;;;8.65;4.93;;;9.20;99.90;;;;;;6152021;23;20002;-74
2021/11/19 03:04:19;;;;;;;7.63;5.07;;;9.10;99.90;;;;;;6154209;23;20015;-74
2021/11/19 03:06:48;;;;;;;6.63;5.03;;;9.10;99.90;;;;;;6153636;23;20006;-75
2021/11/19 03:09:17;;;;;;;10.18;5.45;;;9.10;99.90;;;;;;6153654;23;20016;-74
2021/11/19 03:11:43;;;;;;;8.60;5.15;;;9.10;99.90;;;;;;6127237;23;20088;-75
2021/11/19 03:14:11;;;;;;;6.20;5.00;;;9.10;99.90;;;;;;6153836;23;20437;-74
2021/11/19 03:16:38;;;;;;;7.32;4.97;;;9.20;99.90;;;;;;6151679;23;19998;-74
2021/11/19 03:19:05;;;;;;;7.28;5.07;;;9.20;99.90;;;;;;6153923;23;20035;-74
2021/11/19 03:21:32;;;;;;;8.20;5.10;;;9.20;99.90;;;;;;6153553;23;20081;-74
2021/11/19 03:23:58;;;;;;;8.00;4.78;;;9.20;99.90;;;;;;6153856;23;20005;-75
2021/11/19 03:26:26;;;;;;;8.00;5.03;;;9.20;99.90;;;;;;6153385;23;20025;-74
2021/11/19 03:28:52;;;;;;;7.18;4.85;;;9.20;99.90;;;;;;6151287;23;20001;-74
2021/11/19 03:31:17;;;;;;;8.98;5.10;;;9.20;99.90;;;;;;6127279;23;20019;-74
2021/11/19 03:33:48;;;;;;;7.40;5.40;;;9.20;99.90;;;;;;6153015;23;20580;-74
2021/11/19 03:36:15;;;;;;;6.78;4.88;;;9.20;99.90;;;;;;6127358;23;20060;-74
2021/11/19 03:38:44;;;;;;;9.52;4.72;;;9.30;99.90;;;;;;6153630;23;20016;-74
2021/11/19 03:41:12;;;;;;;8.18;5.15;;;9.30;99.90;;;;;;6152710;23;20005;-74
2021/11/19 03:44:01;;;;;;;8.32;4.53;;;9.20;99.90;;;;;;6151584;23;20010;-74
2021/11/19 03:46:32;;;;;;;7.53;4.78;;;9.20;99.90;;;;;;6153291;23;20004;-74
2021/11/19 03:48:58;;;;;;;5.55;4.53;;;9.20;99.90;;;;;;6153485;23;20088;-74
2021/11/19 03:51:29;;;;;;;5.93;4.47;;;9.10;99.90;;;;;;6153215;23;20087;-74
2021/11/19 03:53:55;;;;;;;6.35;4.38;;;9.10;99.90;;;;;;6153871;23;20016;-74
2021/11/19 03:56:22;;;;;;;7.93;4.43;;;9.10;99.90;;;;;;6152585;23;20002;-74
2021/11/19 03:58:48;;;;;;;7.03;4.65;;;9.20;99.90;;;;;;6153220;23;20020;-74
2021/11/19 04:01:21;;;;;;;8.10;4.93;;;9.20;99.90;;;;;;6153131;23;20001;-74
2021/11/19 04:03:48;;;;;;;6.68;4.57;;;9.20;99.90;;;;;;6153616;23;20012;-74
2021/11/19 04:06:15;;;;;;;6.97;4.65;;;9.20;99.90;;;;;;6151659;23;20097;-74
2021/11/19 04:08:41;;;;;;;6.82;4.60;;;9.30;99.90;;;;;;6151738;23;20008;-74
2021/11/19 04:11:08;;;;;;;7.35;4.47;;;9.20;99.90;;;;;;6126840;23;20009;-74
2021/11/19 04:13:35;;;;;;;6.07;4.43;;;9.20;99.90;;;;;;6153208;23;20002;-74
2021/11/19 04:16:05;;;;;;;9.25;4.57;;;9.20;99.90;;;;;;6151831;23;20080;-74
2021/11/19 04:18:31;;;;;;;6.03;4.45;;;9.20;99.90;;;;;;6153117;23;20013;-74
2021/11/19 04:20:57;;;;;;;7.22;4.40;;;9.20;99.90;;;;;;6153553;23;20036;-74
2021/11/19 04:23:24;;;;;;;7.85;4.70;;;9.20;99.90;;;;;;6153231;23;20009;-74
2021/11/19 04:25:52;;;;;;;6.55;4.95;;;9.20;99.90;;;;;;6153029;23;20001;-74
2021/11/19 04:28:17;;;;;;;7.22;4.82;;;9.20;99.90;;;;;;6153245;23;20337;-74
2021/11/19 04:30:46;;;;;;;7.03;4.20;;;9.10;99.90;;;;;;6153030;23;20012;-74
2021/11/19 04:33:12;;;;;;;12.32;4.70;;;9.10;99.90;;;;;;6153128;23;20032;-74
2021/11/19 04:35:38;;;;;;;6.57;3.90;;;9.10;99.90;;;;;;6153484;23;20008;-74
2021/11/19 04:38:04;;;;;;;10.40;4.68;;;9.00;99.90;;;;;;6152946;23;20215;-74
2021/11/19 04:40:35;;;;;;;6.18;4.00;;;9.10;99.90;;;;;;6153209;23;20004;-74
2021/11/19 04:43:01;;;;;;;8.18;4.40;;;9.10;99.90;;;;;;6152812;23;20005;-74
2021/11/19 04:45:29;;;;;;;8.68;4.53;;;9.00;99.90;;;;;;6153156;23;19998;-74
2021/11/19 04:47:56;;;;;;;5.97;4.47;;;9.10;99.90;;;;;;6154814;23;20009;-74
2021/11/19 04:50:25;;;;;;;7.80;4.22;;;9.00;99.90;;;;;;6155101;23;20001;-74
2021/11/19 04:52:52;;;;;;;6.25;4.53;;;9.00;99.90;;;;;;6154799;23;20012;-74
2021/11/19 04:55:19;;;;;;;4.57;3.78;;;9.00;99.90;;;;;;6154977;23;20006;-74
2021/11/19 04:57:45;;;;;;;5.03;3.70;;;9.00;99.90;;;;;;6155022;23;20017;-74
2021/11/19 05:00:17;;;;;;;4.10;3.60;;;8.90;99.90;;;;;;6155294;23;20369;-74
2021/11/19 05:02:43;;;;;;;5.38;3.58;;;9.00;99.90;;;;;;6154883;23;20080;-74
2021/11/19 05:05:09;;;;;;;8.73;4.35;;;9.00;99.90;;;;;;6155211;23;20076;-74
2021/11/19 05:07:35;;;;;;;8.93;4.70;;;9.00;99.90;;;;;;6154754;23;20377;-74
2021/11/19 05:10:01;;;;;;;9.18;4.53;;;9.00;99.90;;;;;;6154818;23;20060;-75
2021/11/19 05:12:32;;;;;;;5.38;4.47;;;9.00;99.90;;;;;;6154510;23;20056;-74
2021/11/19 05:14:58;;;;;;;6.13;4.38;;;9.00;99.90;;;;;;6154893;23;20002;-74
2021/11/19 05:17:24;;;;;;;6.40;4.57;;;9.00;99.90;;;;;;6154437;23;20009;-74
2021/11/19 05:19:51;;;;;;;12.35;4.85;;;9.00;99.90;;;;;;6155275;23;20006;-74
2021/11/19 05:22:17;;;;;;;4.97;4.28;;;9.00;99.90;;;;;;6154566;23;20013;-74
2021/11/19 05:24:43;;;;;;;7.00;4.45;;;9.00;99.90;;;;;;6154875;23;20060;-74
2021/11/19 05:27:09;;;;;;;8.07;4.82;;;9.00;99.90;;;;;;6154397;23;20337;-74
2021/11/19 05:29:35;;;;;;;6.53;4.47;;;9.00;99.90;;;;;;6154817;23;20001;-74
2021/11/19 05:32:01;;;;;;;4.97;4.05;;;9.00;99.90;;;;;;6154336;23;20005;-74
2021/11/19 05:34:27;;;;;;;10.13;4.60;;;9.00;99.90;;;;;;6154834;23;20008;-75
2021/11/19 05:36:53;;;;;;;5.53;4.18;;;9.00;99.90;;;;;;6154308;23;20030;-74
2021/11/19 05:39:20;;;;;;;5.97;3.85;;;9.00;99.90;;;;;;6154843;23;20374;-74
2021/11/19 05:41:46;;;;;;;5.95;4.47;;;9.00;99.90;;;;;;6154019;23;20010;-74
2021/11/19 05:44:13;;;;;;;7.95;4.18;;;9.00;99.90;;;;;;6128616;23;20010;-74
2021/11/19 05:46:41;;;;;;;8.50;4.32;;;8.90;99.90;;;;;;6154298;23;20030;-74
2021/11/19 05:49:13;;;;;;;6.43;3.97;;;8.90;99.90;;;;;;6154034;23;20366;-74
2021/11/19 05:51:40;;;;;;;7.30;4.57;;;8.90;99.90;;;;;;6154035;23;19998;-74
2021/11/19 05:54:08;;;;;;;6.72;4.05;;;8.90;99.90;;;;;;6154575;23;20049;-74
2021/11/19 05:56:35;;;;;;;9.73;4.43;;;8.90;99.90;;;;;;6154041;23;20117;-74
2021/11/19 05:59:01;;;;;;;6.28;4.38;;;8.90;99.90;;;;;;6153563;23;20017;-74
2021/11/19 06:01:27;;;;;;;5.10;4.13;;;8.80;99.90;;;;;;6154258;23;20001;-74
2021/11/19 06:03:53;;;;;;;6.38;4.05;;;8.90;99.90;;;;;;6154449;23;20132;-75
2021/11/19 06:06:20;;;;;;;7.57;4.47;;;8.90;99.90;;;;;;6128231;23;20008;-75
2021/11/19 06:08:46;;;;;;;6.18;4.00;;;8.90;99.90;;;;;;6154087;23;20437;-80
2021/11/19 06:11:16;;;;;;;6.82;4.45;;;8.90;99.90;;;;;;6153712;23;20009;-75
2021/11/19 06:14:04;;;;;;;7.80;3.95;;;8.80;99.90;;;;;;6158255;23;19997;-80
2021/11/19 06:16:36;;;;;;;7.05;4.45;;;8.90;99.90;;;;;;6157580;23;20029;-80
2021/11/19 06:19:07;;;;;;;6.75;4.30;;;8.80;99.90;;;;;;6127780;23;20028;-81
2021/11/19 06:21:56;;;;;;;8.32;4.45;;;8.90;99.90;;;;;;6153691;23;20418;-75
2021/11/19 06:24:31;;;;;;;6.53;4.70;;;8.90;99.90;;;;;;6127480;23;20013;-74
2021/11/19 06:26:58;;;;;;;6.72;4.25;;;8.90;99.90;;;;;;6152272;23;20059;-75
2021/11/19 06:29:24;;;;;;;6.40;4.40;;;8.90;99.90;;;;;;6152726;23;20012;-75
2021/11/19 06:31:51;;;;;;;7.68;4.60;;;9.00;99.90;;;;;;6152401;23;19998;-75
2021/11/19 06:34:17;;;;;;;8.48;4.25;;;9.00;99.90;;;;;;6153189;23;20001;-75
2021/11/19 06:36:45;;;;;;;6.18;4.38;;;9.00;99.90;;;;;;6152604;23;20056;-78
2021/11/19 06:39:11;;;;;;;7.38;4.05;;;9.00;99.90;;;;;;6152017;23;20037;-76
2021/11/19 06:41:37;;;;;;;9.68;4.00;;;9.00;99.90;;;;;;6125248;23;20005;-75
2021/11/19 06:44:04;;;;;;;4.75;3.85;;;9.00;99.90;;;;;;6151844;23;20085;-75
2021/11/19 06:46:30;;;;;;;4.22;3.45;;;9.10;99.90;;;;;;6149235;23;20002;-77
2021/11/19 06:48:56;;;;;;;6.18;3.88;;;9.20;99.90;;;;;;6126114;23;19997;-74
2021/11/19 06:51:22;;;;;;;6.97;3.97;;;9.20;99.90;;;;;;6126693;23;20442;-77
2021/11/19 06:53:48;;;;;;;6.50;4.20;;;9.20;99.90;;;;;;6127275;23;20009;-77
2021/11/19 06:56:16;;;;;;;6.70;3.85;;;9.30;99.90;;;;;;6127365;23;20016;-76
2021/11/19 06:58:42;;;;;;;7.28;4.70;;;9.40;99.90;;;;;;6153720;23;20020;-77
2021/11/19 07:01:08;;;;;;;6.45;4.38;;;9.50;99.90;;;;;;6127358;23;20005;-76
2021/11/19 07:03:34;;;;;;;7.15;4.45;;;9.50;99.90;;;;;;6153877;23;20029;-75
2021/11/19 07:06:00;;;;;;;5.43;4.32;;;9.60;99.90;;;;;;6127612;23;20008;-75
2021/11/19 07:08:26;;;;;;;4.68;3.78;;;9.60;99.90;;;;;;6126958;23;20013;-74
2021/11/19 07:10:55;;;;;;;5.60;4.28;;;9.70;99.90;;;;;;6153810;23;20016;-75
2021/11/19 07:13:21;;;;;;;5.90;3.80;;;9.70;99.90;;;;;;6153747;23;20040;-75
2021/11/19 07:15:47;;;;;;;7.30;3.78;;;9.80;99.90;;;;;;6127332;23;20005;-75
2021/11/19 07:18:13;;;;;;;11.50;4.43;;;9.90;99.90;;;;;;6153402;23;20632;-75
2021/11/19 07:20:39;;;;;;;7.63;3.78;;;9.90;99.90;;;;;;6153885;23;20001;-75
2021/11/19 07:23:08;;;;;;;12.32;4.63;;;9.90;99.90;;;;;;6151705;23;20009;-75
2021/11/19 07:25:34;;;;;;;8.35;4.50;;;10.00;99.90;;;;;;6152224;23;20006;-75
2021/11/19 07:28:01;;;;;;;8.95;4.20;;;10.10;99.90;;;;;;6153399;23;20079;-74
2021/11/19 07:30:44;;;;;;;7.78;4.32;;;10.20;99.90;;;;;;6153667;23;20010;-75
2021/11/19 07:33:10;;;;;;;10.13;4.60;;;10.30;99.90;;;;;;6153303;23;20009;-74
2021/11/19 07:35:37;;;;;;;9.80;4.65;;;10.40;99.90;;;;;;6153635;23;20001;-75
2021/11/19 07:38:05;;;;;;;10.55;4.38;;;10.50;99.90;;;;;;6153178;23;20014;-74
2021/11/19 07:40:33;;;;;;;7.10;4.60;;;10.50;99.90;;;;;;6151958;23;20002;-75
2021/11/19 07:42:59;;;;;;;5.75;3.90;;;10.60;99.90;;;;;;6151939;23;20084;-75
2021/11/19 07:45:29;;;;;;;8.02;4.03;;;10.70;99.90;;;;;;6153582;23;20459;-75
2021/11/19 07:47:55;;;;;;;8.38;3.97;;;10.80;99.90;;;;;;6153040;23;20006;-74
2021/11/19 07:50:25;;;;;;;4.47;3.72;;;10.90;99.90;;;;;;6153641;23;20009;-75
2021/11/19 07:52:50;;;;;;;12.00;4.43;;;10.90;99.90;;;;;;6151789;23;20013;-75
2021/11/19 07:55:17;;;;;;;8.20;4.47;;;11.00;99.90;;;;;;6153351;23;20005;-74
2021/11/19 07:57:43;;;;;;;7.53;4.70;;;11.10;99.90;;;;;;6153018;23;20089;-75
2021/11/19 08:00:13;;;;;;;9.05;4.82;;;11.20;99.90;;;;;;6153317;23;20056;-75
2021/11/19 08:02:39;;;;;;;9.05;5.28;;;11.30;99.90;;;;;;6153267;23;20076;-75
2021/11/19 08:05:06;;;;;;;10.77;4.80;;;11.30;99.90;;;;;;6153431;23;20013;-75
2021/11/19 08:07:32;;;;;;;11.30;4.60;;;11.30;99.90;;;;;;6153234;23;20005;-75
2021/11/19 08:09:58;;;;;;;6.70;4.70;;;11.30;99.90;;;;;;6127228;23;20017;-76
2021/11/19 08:12:25;;;;;;;9.60;5.28;;;11.40;99.90;;;;;;6152950;23;20068;-75
2021/11/19 08:14:50;;;;;;;10.25;5.05;;;11.40;99.90;;;;;;6153402;23;20005;-75
2021/11/19 08:17:27;;;;;;;7.10;4.25;;;11.50;99.90;;;;;;6152604;23;20328;-74
2021/11/19 08:19:52;;;;;;;10.57;4.80;;;11.50;99.90;;;;;;6153767;23;20013;-74
2021/11/19 08:22:18;;;;;;;7.15;5.05;;;11.60;99.90;;;;;;6126373;23;20343;-75
2021/11/19 08:24:46;;;;;;;7.38;5.10;;;11.70;99.90;;;;;;6127664;23;20020;-75
2021/11/19 08:27:15;;;;;;;13.48;4.57;;;11.90;99.90;;;;;;6152707;23;20315;-74
2021/11/19 08:29:43;;;;;;;12.38;3.95;;;12.00;99.90;;;;;;6151814;23;20002;-75
2021/11/19 08:32:10;;;;;;;10.88;3.80;;;12.00;99.90;;;;;;6152796;23;20007;-75
2021/11/19 08:34:36;;;;;;;10.50;4.10;;;12.10;99.90;;;;;;6153623;23;20014;-76
2021/11/19 08:37:02;;;;;;;9.30;4.10;;;12.10;99.90;;;;;;6152600;23;20088;-75
2021/11/19 08:39:29;;;;;;;4.60;3.00;;;12.20;99.90;;;;;;6152145;23;20016;-76
2021/11/19 08:41:55;;;;;;;10.32;4.03;;;12.30;99.90;;;;;;6152817;23;20010;-74
2021/11/19 08:44:24;;;;;;;7.85;4.60;;;12.30;99.90;;;;;;6153146;23;20009;-75
2021/11/19 08:46:52;;;;;;;5.88;4.32;;;12.40;99.90;;;;;;6151198;23;20537;-74
2021/11/19 08:49:25;;;;;;;7.20;4.53;;;12.50;99.90;;;;;;6153525;23;20025;-75
2021/11/19 08:51:52;;;;;;;6.50;4.28;;;12.60;99.90;;;;;;6151369;23;20080;-75
2021/11/19 08:54:18;;;;;;;5.70;3.60;;;12.60;99.90;;;;;;6151622;23;20009;-76
2021/11/19 08:56:48;;;;;;;5.97;3.60;;;12.70;99.90;;;;;;6152818;23;20448;-76
2021/11/19 08:59:15;;;;;;;9.55;3.97;;;12.80;99.80;;;;;;6152979;23;20437;-76
2021/11/19 09:01:46;;;;;;;8.00;3.60;;;12.90;99.70;;;;;;6152870;23;20385;-75
2021/11/19 09:04:12;;;;;;;7.43;3.50;;;13.00;98.80;;;;;;6153215;23;20067;-76
2021/11/19 09:06:39;;;;;;;6.30;3.90;;;13.10;98.70;;;;;;6150918;23;20325;-76
2021/11/19 09:09:07;;;;;;;5.05;3.30;;;13.30;98.50;;;;;;6152924;23;20156;-75
2021/11/19 09:11:34;;;;;;;4.30;3.30;;;13.30;97.40;;;;;;6152065;23;20056;-75
2021/11/19 09:14:00;;;;;;;9.18;5.68;;;13.40;96.50;;;;;;6153165;23;20002;-75
2021/11/19 09:16:31;;;;;;;12.00;5.63;;;13.50;97.00;;;;;;6152224;23;20081;-74
2021/11/19 09:19:12;;;;;;;10.90;4.93;;;13.60;96.60;;;;;;6153046;23;20020;-76
2021/11/19 09:21:49;;;;;;;14.90;6.20;;;13.50;95.80;;;;;;6151651;23;20002;-75
2021/11/19 09:24:19;;;;;;;11.82;4.78;;;13.50;96.00;;;;;;6150948;23;20001;-75
2021/11/19 09:26:50;;;;;;;7.13;4.35;;;13.50;96.70;;;;;;6150164;23;20002;-76
2021/11/19 09:29:22;;;;;;;5.03;3.63;;;13.40;96.60;;;;;;6150759;23;20569;-75
2021/11/19 09:31:49;;;;;;;7.85;4.03;;;13.40;96.10;;;;;;6150263;23;20304;-74
2021/11/19 09:34:17;;;;;;;9.32;4.38;;;13.50;95.70;;;;;;6152601;23;20433;-75
2021/11/19 09:36:42;;;;;;;11.70;5.45;;;13.40;96.30;;;;;;6152870;23;20055;-75
2021/11/19 09:39:11;;;;;;;8.32;4.38;;;13.40;96.60;;;;;;6154519;23;20014;-75
2021/11/19 09:42:07;;;;;;;14.02;4.28;;;13.40;97.00;;;;;;6153876;23;19997;-74
2021/11/19 09:45:04;;;;;;;14.10;5.47;;;13.40;96.80;;;;;;6154670;23;20005;-74
2021/11/19 09:47:51;;;;;;;5.70;4.15;;;13.40;96.20;;;;;;6154066;23;20000;-74
2021/11/19 09:50:38;;;;;;;11.50;4.47;;;13.50;95.40;;;;;;6154736;23;20005;-74
2021/11/19 09:53:19;;;;;;;6.18;4.18;;;13.40;95.50;;;;;;6154214;23;20081;-75
2021/11/19 09:56:15;;;;;;;4.72;3.90;;;13.50;95.00;;;;;;6128247;23;20009;-75
2021/11/19 09:59:05;;;;;;;6.32;4.43;;;13.60;94.60;;;;;;6154047;23;20064;-75
2021/11/19 10:01:34;;;;;;;11.00;5.43;;;13.70;95.50;;;;;;6153750;23;20310;-75
2021/11/19 10:04:22;;;;;;;9.77;5.45;;;13.80;96.30;;;;;;6128327;23;20006;-75
2021/11/19 10:07:30;;;;;;;8.70;5.07;;;13.90;96.00;;;;;;6153789;23;20002;-75
2021/11/19 10:10:10;;;;;;;14.02;7.05;;;13.90;95.90;;;;;;6109294;23;20028;-75
2021/11/19 10:12:53;;;;;;;8.95;4.93;;;13.90;96.50;;;;;;6153776;23;19994;-74
2021/11/19 10:15:24;;;;;;;10.25;5.40;;;13.90;96.40;;;;;;6153841;23;20090;-74
2021/11/19 10:17:58;;;;;;;12.85;6.03;;;14.00;96.90;;;;;;6151967;23;20052;-75
2021/11/19 10:20:40;;;;;;;6.65;4.97;;;13.90;96.80;;;;;;6154280;23;19997;-74
2021/11/19 10:23:18;;;;;;;4.43;2.90;;;14.00;95.90;;;;;;6153708;23;20072;-74
2021/11/19 10:26:05;;;;;;;7.18;4.03;;;14.00;95.00;;;;;;6128033;23;20302;-75
2021/11/19 10:28:38;;;;;;;6.18;3.60;;;14.10;96.40;;;;;;6152488;23;20421;-73
2021/11/19 10:31:10;;;;;;;6.15;3.90;;;14.00;96.50;;;;;;6152099;23;20372;-75
2021/11/19 10:33:43;;;;;;;4.70;4.03;;;14.10;95.40;;;;;;6152471;23;20410;-75
2021/11/19 10:36:12;;;;;;;8.20;3.70;;;14.20;93.60;;;;;;6153818;23;20412;-74
2021/11/19 10:38:41;;;;;;;4.10;3.20;;;14.10;95.30;;;;;;6153757;23;20050;-75
2021/11/19 10:41:24;;;;;;;4.07;2.88;;;14.20;93.10;;;;;;6127532;23;20794;-74
2021/11/19 10:44:26;;;;;;;3.70;3.05;;;14.20;92.40;;;;;;6127728;23;20436;-75
2021/11/19 10:47:06;;;;;;;3.67;2.75;;;14.20;94.10;;;;;;6127360;23;20429;-74
2021/11/19 10:50:08;;;;;;;5.43;2.72;;;14.20;94.40;;;;;;6127919;23;20006;-75
2021/11/19 10:52:53;;;;;;;6.70;3.90;;;14.20;94.70;;;;;;6153359;23;20001;-75
2021/11/19 10:55:46;;;;;;;5.07;3.60;;;14.30;96.30;;;;;;6127361;23;19998;-73
2021/11/19 10:58:20;;;;;;;4.07;3.00;;;14.30;97.50;;;;;;6153414;23;20093;-73
2021/11/19 11:00:58;;;;;;;4.25;2.88;;;14.30;98.60;;;;;;6127523;23;20009;-76
2021/11/19 11:03:30;;;;;;;6.05;3.25;;;14.30;96.70;;;;;;6153561;23;20076;-75
2021/11/19 11:06:06;;;;;;;3.90;3.37;;;14.20;97.50;;;;;;6151702;23;20006;-74
2021/11/19 11:08:38;;;;;;;7.10;3.90;;;14.30;99.50;;;;;;6153236;23;20626;-74
2021/11/19 11:11:10;;;;;;;6.22;3.30;;;14.30;99.00;;;;;;6153370;23;20005;-74
2021/11/19 11:13:56;;;;;;;4.50;3.25;;;14.40;98.30;;;;;;6153802;23;19997;-74
2021/11/19 11:16:25;;;;;;;5.80;3.17;;;14.40;99.00;;;;;;6151782;23;20081;-74
2021/11/19 11:18:50;;;;;;;6.05;3.40;;;14.30;97.90;;;;;;6153802;23;20118;-74
2021/11/19 11:21:29;;;;;;;4.85;3.55;;;14.30;99.90;;;;;;6126271;23;20010;-73
2021/11/19 11:24:22;;;;;;;6.50;3.53;;;14.20;99.90;;;;;;6149310;23;20013;-74
2021/11/19 11:26:50;;;;;;;;;;;14.20;99.90;;;;;;6150600;23;20009;-74
2021/11/19 11:29:16;;;;;;;6.88;3.30;;;14.30;99.90;;;;;;6150348;23;20403;-74
2021/11/19 11:32:02;;;;;;;4.65;3.63;;;14.40;99.00;;;;;;6150015;23;20009;-75
2021/11/19 11:35:11;;;;;;;6.70;4.07;;;14.60;99.90;;;;;;6148242;23;20013;-74
2021/11/19 11:38:06;;;;;;;4.63;3.22;;;14.60;99.90;;;;;;6149469;23;20042;-76
2021/11/19 11:40:37;;;;;;;5.55;3.45;;;14.50;99.50;;;;;;6123851;23;20445;-77
2021/11/19 11:43:32;;;;;;;3.78;3.30;;;14.60;99.70;;;;;;6149209;23;20002;-82
2021/11/19 11:46:15;;;;;;;6.60;3.38;;;14.50;99.90;;;;;;6124942;23;20001;-77
2021/11/19 11:49:45;;;;;;;5.75;3.67;;;14.50;99.90;;;;;;6123972;23;20009;-77
2021/11/19 11:52:22;;;;;;;5.95;3.58;;;14.50;99.90;;;;;;6048565;23;20007;-75
2021/11/19 11:55:10;;;;;;;4.03;3.25;;;14.60;99.90;;;;;;6115096;23;20059;-79
2021/11/19 11:57:49;;;;;;;7.63;4.07;;;14.70;99.90;;;;;;6150458;23;20018;-78
2021/11/19 12:00:28;;;;;;;5.88;4.13;;;14.80;99.90;;;;;;6150465;23;20330;-78
2021/11/19 12:03:06;;;;;;;13.05;4.00;;;14.90;99.90;;;;;;6149781;23;20002;-79
2021/11/19 12:05:48;;;;;;;6.63;3.95;;;15.10;99.90;;;;;;6152520;23;20021;-77
2021/11/19 12:08:39;;;;;;;6.20;4.00;;;15.30;99.90;;;;;;6152713;23;20418;-78
2021/11/19 12:11:29;;;;;;;6.35;4.22;;;15.70;99.90;;;;;;6153001;23;20013;-77
2021/11/19 12:14:24;;;;;;;8.73;3.55;;;16.30;99.90;;;;;;6153224;23;20029;-78
2021/11/19 12:16:50;;;;;;;4.15;3.40;;;17.90;96.90;;;;;;6127047;23;20005;-78
2021/11/19 12:19:32;;;;;;;7.03;3.95;;;18.80;93.70;;;;;;6153294;23;20503;-78
2021/11/19 12:22:07;;;;;;;5.35;3.55;;;19.70;91.80;;;;;;6152628;23;20060;-78
2021/11/19 12:24:41;;;;;;;3.40;3.10;;;20.30;91.10;;;;;;6152004;23;20032;-78
2021/11/19 12:27:38;;;;;;;6.10;4.03;;;20.50;84.90;;;;;;6123668;23;20342;-76
2021/11/19 12:30:26;;;;;;;4.57;4.07;;;20.70;87.30;;;;;;6047400;23;20008;-77
2021/11/19 12:33:07;;;;;;;6.10;4.50;;;20.90;83.50;;;;;;6150420;23;20012;-77
2021/11/19 12:35:41;;;;;;;7.25;5.15;;;20.20;82.30;;;;;;6151134;23;20016;-78
2021/11/19 12:38:32;;;;;;;6.72;4.82;;;19.90;82.80;;;;;;6150662;23;20008;-78
2021/11/19 12:41:11;;;;;;;7.43;4.90;;;19.90;82.20;;;;;;6126655;23;20029;-80
2021/11/19 12:44:05;;;;;;;7.20;4.35;;;20.10;81.70;;;;;;6153417;23;20021;-88
2021/11/19 12:46:59;;;;;;;8.50;4.78;;;20.30;78.60;;;;;;6126798;23;20017;-80
2021/11/19 12:50:02;;;;;;;8.13;5.05;;;20.60;76.30;;;;;;6154699;23;20491;-77
2021/11/19 12:52:35;;;;;;;8.15;5.45;;;21.20;75.80;;;;;;6152629;23;20009;-81
2021/11/19 12:55:09;;;;;;;8.93;5.40;;;21.40;75.30;;;;;;6153651;23;20001;-79
2021/11/19 12:57:54;;;;;;;7.50;5.70;;;22.00;74.60;;;;;;6152711;23;20006;-79
2021/11/19 13:00:35;;;;;;;6.63;5.40;;;22.40;72.70;;;;;;6153660;23;20027;-80
2021/11/19 13:03:43;;;;;;;9.73;6.30;;;23.10;68.70;;;;;;6126623;23;20479;-79
2021/11/19 13:06:15;;;;;;;13.05;6.25;;;22.50;69.30;;;;;;6152760;23;20021;-76
2021/11/19 13:08:47;;;;;;;8.70;5.33;;;21.90;69.40;;;;;;6153577;23;19997;-77
2021/11/19 13:11:30;;;;;;;8.57;6.38;;;22.30;69.00;;;;;;6154769;23;20016;-75
2021/11/19 13:14:27;;;;;;;9.80;5.72;;;22.40;68.60;;;;;;6155194;23;20464;-76
2021/11/19 13:17:16;;;;;;;5.97;5.05;;;21.90;67.40;;;;;;6113244;23;20337;-78
2021/11/19 13:19:41;;;;;;;7.53;5.70;;;21.70;67.20;;;;;;6095227;23;20009;-78